Colusa, Illinois
Current Conditions -  °F | °C
As of 2:55 PM on Saturday 25 Oct 2014 (Local Time) from KFSW Reporting Station
Clear Clear  
Wind Chill: 77°   Ceiling: Unl
Heat Index: 78°   Visibility: 10mi
Dew Point: 43°   Wind: 6mph
Humidity: 29%   Direction: 350°N
Pressure: 30.04"   Gusts: NA
Location:  40.57°N, 91.17°W
Report Text: KFSW 251955Z AUTO 35005KT 10SM CLR 25/06 A3004 RMK AO2
Loading
Personal Weather Stations






























Interactive Weather Map
Tropical Storm Tracking
New forecast layout! Learn more

10-Day Weather Forecast

Advertisements
Track Severe Weather on mobile